Time;durP1;ratioP1;P1;durP2;ratioP2;P2;SDS_P1;SDS_P2;PMS_P1;PMS_P2;Temp;Humidity;BMP_temperature;BMP_pressure;BME280_temperature;BME280_humidity;BME280_pressure;Samples;Min_cycle;Max_cycle;Signal;HPM_P1;HPM_P2
2022/06/17 00:00:50;;;;;;;16.80;10.55;;;;;;;14.01;94.74;102501.59;5055558;28;20437;-76
2022/06/17 00:03:16;;;;;;;12.65;10.10;;;;;;;14.01;95.20;102498.91;5055113;28;20037;-76
2022/06/17 00:05:42;;;;;;;15.90;10.98;;;;;;;14.00;94.80;102498.06;5055244;28;20473;-75
2022/06/17 00:08:15;;;;;;;13.07;9.27;;;;;;;13.98;94.09;102491.13;5055881;28;20040;-76
2022/06/17 00:10:40;;;;;;;9.30;8.20;;;;;;;13.95;93.24;102486.03;5054849;28;20025;-76
2022/06/17 00:13:11;;;;;;;12.27;8.82;;;;;;;13.89;93.09;102485.50;5053684;28;20044;-76
2022/06/17 00:15:36;;;;;;;9.55;7.05;;;;;;;13.85;92.64;102485.88;5054753;28;20033;-76
2022/06/17 00:18:02;;;;;;;8.98;7.47;;;;;;;13.82;92.38;102480.78;5054595;28;20064;-76
2022/06/17 00:20:27;;;;;;;12.80;7.53;;;;;;;13.77;92.30;102488.31;5054679;28;20041;-76
2022/06/17 00:22:53;;;;;;;7.50;6.32;;;;;;;13.72;92.16;102491.34;5054765;28;20040;-76
2022/06/17 00:25:34;;;;;;;10.25;8.15;;;;;;;13.66;92.31;102484.66;5054559;28;20029;-76
2022/06/17 00:28:00;;;;;;;11.27;8.65;;;;;;;13.62;92.62;102483.19;5054732;28;20040;-76
2022/06/17 00:30:29;;;;;;;17.33;10.73;;;;;;;13.60;94.29;102479.78;5052934;28;20025;-75
2022/06/17 00:32:58;;;;;;;16.52;11.77;;;;;;;13.54;93.82;102483.78;5053033;28;20112;-75
2022/06/17 00:35:29;;;;;;;9.13;8.15;;;;;;;13.50;93.93;102478.78;5054003;28;20039;-77
2022/06/17 00:37:55;;;;;;;15.82;10.30;;;;;;;13.46;95.27;102474.66;5053599;28;20029;-75
2022/06/17 00:40:26;;;;;;;13.40;10.65;;;;;;;13.42;94.84;102481.19;5053378;28;20400;-76
2022/06/17 00:42:52;;;;;;;13.45;9.73;;;;;;;13.37;94.68;102481.53;5054474;28;20025;-76
2022/06/17 00:45:27;;;;;;;11.23;8.18;;;;;;;13.33;94.53;102480.03;5054113;28;20091;-76
2022/06/17 00:48:02;;;;;;;14.20;11.32;;;;;;;13.32;95.63;102481.03;5054486;28;20051;-76
2022/06/17 00:50:39;;;;;;;16.70;12.40;;;;;;;13.29;95.64;102481.25;5053939;28;20033;-75
2022/06/17 00:53:17;;;;;;;12.52;11.20;;;;;;;13.27;96.16;102478.72;5054139;28;20047;-75
2022/06/17 00:55:48;;;;;;;18.42;13.93;;;;;;;13.26;97.57;102476.16;5054094;28;20035;-75
2022/06/17 00:58:28;;;;;;;15.63;11.85;;;;;;;13.21;97.09;102474.66;5053536;28;20081;-76
2022/06/17 01:00:56;;;;;;;15.27;11.48;;;;;;;13.20;97.15;102480.13;5052493;28;20560;-76
2022/06/17 01:03:27;;;;;;;12.82;10.27;;;;;;;13.16;96.62;102482.16;5054003;28;20111;-75
2022/06/17 01:06:00;;;;;;;17.77;14.02;;;;;;;13.16;97.45;102482.16;5054158;28;20032;-74
2022/06/17 01:11:23;;;;;;;11.57;9.60;;;;;;;13.16;97.84;102487.50;5053786;28;20435;-75
2022/06/17 01:13:50;;;;;;;20.80;15.27;;;;;;;13.17;98.35;102481.22;5053672;28;20421;-76
2022/06/17 01:16:22;;;;;;;18.75;14.18;;;;;;;13.18;100.00;102480.25;5052488;28;20120;-76
2022/06/17 01:18:48;;;;;;;;;;;;;;;13.21;100.00;102485.38;5053942;28;20029;-75
2022/06/17 01:21:21;;;;;;;18.17;14.43;;;;;;;13.22;100.00;102476.34;5053391;28;19920;-76
2022/06/17 01:23:48;;;;;;;21.40;15.23;;;;;;;13.21;100.00;102477.34;5051987;28;20468;-75
2022/06/17 01:26:15;;;;;;;28.40;15.80;;;;;;;13.22;100.00;102479.03;5053253;28;20020;-76
2022/06/17 01:28:40;;;;;;;19.65;15.35;;;;;;;13.22;100.00;102473.69;5051839;28;20508;-75
2022/06/17 01:31:07;;;;;;;18.17;13.95;;;;;;;13.21;100.00;102468.44;5053819;28;20033;-76
2022/06/17 01:33:37;;;;;;;20.92;15.13;;;;;;;13.19;100.00;102467.72;5053297;28;20037;-75
2022/06/17 01:36:19;;;;;;;19.47;15.27;;;;;;;13.22;100.00;102478.19;5053193;28;20033;-74
2022/06/17 01:38:49;;;;;;;19.25;15.98;;;;;;;13.25;100.00;102475.28;5052764;28;20294;-75
2022/06/17 01:41:17;;;;;;;18.65;15.20;;;;;;;13.27;100.00;102468.00;5053360;28;20047;-76
2022/06/17 01:43:51;;;;;;;18.83;15.75;;;;;;;13.30;100.00;102466.91;5053239;28;20029;-76
2022/06/17 01:46:23;;;;;;;17.23;15.10;;;;;;;13.31;100.00;102455.25;5053289;28;20116;-75
2022/06/17 01:48:57;;;;;;;;;;;;;;;13.29;100.00;102455.38;5053142;28;20426;-76
2022/06/17 01:51:26;;;;;;;16.63;13.90;;;;;;;13.26;100.00;102452.94;5052753;28;19908;-75
2022/06/17 01:53:55;;;;;;;16.38;14.68;;;;;;;13.25;100.00;102455.72;5052949;28;20036;-76
2022/06/17 01:56:23;;;;;;;18.15;13.82;;;;;;;13.24;100.00;102460.19;5050712;28;20033;-75
2022/06/17 01:58:55;;;;;;;17.95;13.77;;;;;;;13.25;100.00;102461.06;5050347;28;20037;-75
2022/06/17 02:01:24;;;;;;;17.40;12.15;;;;;;;13.26;100.00;102466.28;5050655;28;20060;-75
2022/06/17 02:03:56;;;;;;;13.65;12.18;;;;;;;13.30;100.00;102470.44;5050473;28;20081;-75
2022/06/17 02:06:31;;;;;;;15.15;12.15;;;;;;;13.34;100.00;102477.28;5050352;28;20037;-75
2022/06/17 02:08:57;;;;;;;15.70;12.52;;;;;;;13.39;100.00;102472.44;5048721;28;20120;-76
2022/06/17 02:11:23;;;;;;;17.65;13.77;;;;;;;13.44;100.00;102463.22;5050472;28;20081;-75
2022/06/17 02:13:48;;;;;;;19.70;15.00;;;;;;;13.49;100.00;102463.72;5048857;28;20033;-75
2022/06/17 02:16:15;;;;;;;18.60;13.55;;;;;;;13.54;100.00;102466.88;5050187;28;20047;-76
2022/06/17 02:18:43;;;;;;;14.98;12.60;;;;;;;13.57;100.00;102467.50;5050128;28;20033;-75
2022/06/17 02:21:39;;;;;;;17.13;12.75;;;;;;;13.57;100.00;102472.84;5050246;28;20044;-75
2022/06/17 02:24:05;;;;;;;14.90;12.50;;;;;;;13.55;100.00;102468.56;5050568;28;20049;-75
2022/06/17 02:26:33;;;;;;;16.98;12.30;;;;;;;13.54;100.00;102464.19;5049886;28;20029;-75
2022/06/17 02:29:01;;;;;;;15.23;12.70;;;;;;;13.51;100.00;102461.75;5049820;28;20497;-75
2022/06/17 02:31:28;;;;;;;15.68;12.18;;;;;;;13.49;100.00;102461.88;5050532;28;20330;-75
2022/06/17 02:33:54;;;;;;;18.65;13.60;;;;;;;13.48;100.00;102465.53;5049899;28;20029;-76
2022/06/17 02:36:26;;;;;;;17.42;12.98;;;;;;;13.46;100.00;102464.78;5049582;28;20407;-76
2022/06/17 02:38:52;;;;;;;13.02;11.63;;;;;;;13.44;100.00;102476.59;5048553;28;20089;-75
2022/06/17 02:41:19;;;;;;;16.58;12.55;;;;;;;13.41;100.00;102464.31;5049908;28;20465;-75
2022/06/17 02:44:01;;;;;;;16.23;12.30;;;;;;;13.39;100.00;102469.78;5049746;28;20063;-77
2022/06/17 02:46:40;;;;;;;18.20;11.77;;;;;;;13.37;100.00;102474.38;5049948;28;20082;-75
2022/06/17 02:49:16;;;;;;;17.73;12.82;;;;;;;13.39;100.00;102468.91;5050056;28;20086;-77
2022/06/17 02:51:43;;;;;;;15.35;12.68;;;;;;;13.40;100.00;102466.13;5049787;28;20376;-78
2022/06/17 02:54:14;;;;;;;14.77;12.52;;;;;;;13.43;100.00;102466.84;5050495;28;20429;-77
2022/06/17 02:56:47;;;;;;;17.42;13.05;;;;;;;13.46;100.00;102472.81;5049994;28;20432;-77
2022/06/17 02:59:23;;;;;;;20.23;12.20;;;;;;;13.51;100.00;102469.78;5050398;28;20218;-77
2022/06/17 03:01:51;;;;;;;13.35;11.68;;;;;;;13.55;100.00;102457.88;5050188;28;20115;-77
2022/06/17 03:04:24;;;;;;;14.85;11.48;;;;;;;13.60;100.00;102454.84;5049983;28;20112;-77
2022/06/17 03:06:50;;;;;;;12.68;11.15;;;;;;;13.67;100.00;102453.41;5050004;28;20029;-76
2022/06/17 03:09:23;;;;;;;13.52;11.30;;;;;;;13.73;100.00;102459.13;5049932;28;20039;-76
2022/06/17 03:12:03;;;;;;;17.55;12.40;;;;;;;13.80;100.00;102448.78;5050216;28;20029;-76
2022/06/17 03:14:35;;;;;;;12.20;10.45;;;;;;;13.87;100.00;102450.00;5049503;28;20083;-76
2022/06/17 03:17:04;;;;;;;13.52;10.18;;;;;;;13.93;100.00;102451.34;5050161;28;20093;-76
2022/06/17 03:19:33;;;;;;;12.38;9.60;;;;;;;13.99;100.00;102455.34;5049910;28;20021;-76
2022/06/17 03:21:59;;;;;;;11.45;9.32;;;;;;;14.03;100.00;102449.66;5049569;28;20036;-76
2022/06/17 03:24:33;;;;;;;10.35;9.10;;;;;;;14.09;100.00;102453.63;5049847;28;20449;-76
2022/06/17 03:27:04;;;;;;;12.13;8.75;;;;;;;14.15;100.00;102453.16;5049797;28;20033;-76
2022/06/17 03:29:32;;;;;;;14.93;8.75;;;;;;;14.20;100.00;102452.81;5048253;28;20120;-76
2022/06/17 03:32:05;;;;;;;12.90;9.10;;;;;;;14.24;100.00;102455.09;5049919;28;20077;-76
2022/06/17 03:34:36;;;;;;;14.05;8.77;;;;;;;14.29;100.00;102449.38;5049815;28;20029;-76
2022/06/17 03:37:13;;;;;;;15.43;8.90;;;;;;;14.37;100.00;102446.06;5050262;28;20029;-76
2022/06/17 03:39:41;;;;;;;10.15;7.40;;;;;;;14.42;100.00;102452.75;5049409;28;20025;-76
2022/06/17 03:42:15;;;;;;;10.50;7.65;;;;;;;14.48;100.00;102458.56;5048207;28;20079;-77
2022/06/17 03:44:48;;;;;;;8.57;7.30;;;;;;;14.54;100.00;102456.25;5049691;28;20047;-76
2022/06/17 03:47:37;;;;;;;10.77;7.63;;;;;;;14.59;100.00;102459.41;5049605;28;20074;-76
2022/06/17 03:50:06;;;;;;;12.20;8.10;;;;;;;14.65;99.32;102463.44;5049875;28;20029;-76
2022/06/17 03:52:43;;;;;;;10.25;7.75;;;;;;;14.69;98.20;102467.56;5049499;28;20025;-76
2022/06/17 03:55:17;;;;;;;10.23;7.53;;;;;;;14.76;98.25;102459.88;5049287;28;20174;-75
2022/06/17 03:57:50;;;;;;;11.77;6.95;;;;;;;14.80;97.24;102447.94;5047681;28;20136;-76
2022/06/17 04:00:51;;;;;;;16.92;7.45;;;;;;;14.88;97.18;102440.09;5049194;28;20060;-75
2022/06/17 04:03:20;;;;;;;11.00;7.88;;;;;;;14.94;97.20;102444.94;5047736;28;20041;-75
2022/06/17 04:05:51;;;;;;;9.75;7.07;;;;;;;15.01;97.15;102450.63;5049333;28;20103;-77
2022/06/17 04:08:16;;;;;;;10.95;7.32;;;;;;;15.05;97.03;102448.53;5049233;28;20129;-77
2022/06/17 04:10:42;;;;;;;8.55;6.88;;;;;;;15.07;96.38;102450.13;5049184;28;20502;-76
2022/06/17 04:13:14;;;;;;;8.85;6.72;;;;;;;15.11;96.13;102453.41;5049741;28;20480;-76
2022/06/17 04:15:54;;;;;;;9.65;6.50;;;;;;;15.14;95.57;102443.25;5052770;28;20063;-77
2022/06/17 04:18:19;;;;;;;9.18;6.38;;;;;;;15.19;95.09;102442.03;5052451;28;20090;-76
2022/06/17 04:21:05;;;;;;;12.18;6.70;;;;;;;15.23;94.88;102451.50;5052300;28;20120;-76
2022/06/17 04:23:34;;;;;;;9.60;6.40;;;;;;;15.25;94.92;102453.06;5050922;28;20096;-76
2022/06/17 04:26:02;;;;;;;11.75;7.10;;;;;;;15.28;94.92;102443.91;5052791;28;20036;-76
2022/06/17 04:28:35;;;;;;;7.47;6.47;;;;;;;15.31;94.61;102435.59;5052516;28;20115;-77
2022/06/17 04:31:06;;;;;;;7.93;6.63;;;;;;;15.34;94.13;102440.69;5052986;28;20175;-76
2022/06/17 04:33:59;;;;;;;12.77;6.47;;;;;;;15.40;93.50;102444.69;5052611;28;20536;-77
2022/06/17 04:36:30;;;;;;;8.38;6.68;;;;;;;15.49;93.21;102441.22;5052643;28;20029;-77
2022/06/17 04:39:03;;;;;;;10.00;6.60;;;;;;;15.59;92.74;102439.44;5052451;28;20040;-77
2022/06/17 04:41:33;;;;;;;11.85;5.72;;;;;;;15.71;92.06;102445.56;5052245;28;20040;-77
2022/06/17 04:44:02;;;;;;;8.23;5.80;;;;;;;15.81;90.70;102443.81;5052362;28;20025;-77
2022/06/17 04:46:41;;;;;;;7.45;5.78;;;;;;;15.92;90.48;102444.72;5051777;28;20029;-76
2022/06/17 04:49:20;;;;;;;11.18;6.00;;;;;;;16.01;89.23;102439.38;5051880;28;20096;-75
2022/06/17 04:51:47;;;;;;;9.13;6.07;;;;;;;16.12;88.95;102441.13;5052153;28;20024;-76
2022/06/17 04:54:12;;;;;;;12.75;5.97;;;;;;;16.18;88.03;102427.13;5052170;28;20029;-76
2022/06/17 04:56:42;;;;;;;13.13;6.03;;;;;;;16.25;87.58;102434.66;5051894;28;20049;-75
2022/06/17 04:59:40;;;;;;;13.43;6.43;;;;;;;16.28;86.81;102418.25;5052019;28;20246;-76
2022/06/17 05:02:12;;;;;;;10.05;6.72;;;;;;;16.33;86.19;102418.66;5041959;28;20124;-76
2022/06/17 05:04:38;;;;;;;9.02;6.50;;;;;;;16.38;85.48;102416.44;5052137;28;20035;-76
2022/06/17 05:07:04;;;;;;;9.65;6.10;;;;;;;16.44;84.29;102409.66;5051331;28;20591;-75
2022/06/17 05:09:35;;;;;;;13.93;6.25;;;;;;;16.50;82.24;102412.63;5051556;28;20033;-75
2022/06/17 05:12:31;;;;;;;12.75;5.65;;;;;;;16.61;80.36;102418.84;5051806;28;20043;-76
2022/06/17 05:15:15;;;;;;;11.27;6.03;;;;;;;16.74;78.83;102411.38;5050949;28;20045;-76
2022/06/17 05:17:41;;;;;;;7.57;5.10;;;;;;;16.85;77.75;102402.31;5051736;28;20029;-76
2022/06/17 05:20:12;;;;;;;9.05;5.30;;;;;;;16.95;75.89;102396.97;5051406;28;20067;-75
2022/06/17 05:22:55;;;;;;;9.43;6.32;;;;;;;17.09;74.97;102401.88;5051334;28;20059;-75
2022/06/17 05:25:28;;;;;;;14.75;5.60;;;;;;;17.20;73.95;102396.34;5050801;28;20036;-75
2022/06/17 05:27:54;;;;;;;8.05;5.20;;;;;;;17.31;74.03;102405.25;5051413;28;20048;-76
2022/06/17 05:30:20;;;;;;;11.73;5.35;;;;;;;17.42;72.31;102405.06;5051213;28;20062;-75
2022/06/17 05:32:49;;;;;;;6.95;5.00;;;;;;;17.50;71.76;102397.13;5051382;28;20037;-75
2022/06/17 05:35:15;;;;;;;11.52;5.20;;;;;;;17.60;71.45;102400.63;5050543;28;20027;-75
2022/06/17 05:37:41;;;;;;;8.60;5.50;;;;;;;17.68;71.30;102410.66;5051152;28;20102;-75
2022/06/17 05:40:08;;;;;;;10.98;5.18;;;;;;;17.74;70.63;102401.97;5051101;28;20036;-76
2022/06/17 05:42:35;;;;;;;14.40;5.00;;;;;;;17.82;70.53;102412.00;5051054;28;20043;-76
2022/06/17 05:45:00;;;;;;;13.43;5.45;;;;;;;17.88;68.69;102407.88;5051045;28;20448;-76
2022/06/17 05:47:26;;;;;;;12.27;5.32;;;;;;;17.96;68.69;102410.69;5049285;28;20028;-76
2022/06/17 05:49:51;;;;;;;8.05;5.10;;;;;;;18.05;67.92;102399.03;5050752;28;20087;-75
2022/06/17 05:52:17;;;;;;;10.20;5.70;;;;;;;18.19;66.42;102396.81;5050740;28;20037;-75
2022/06/17 05:54:42;;;;;;;14.93;4.90;;;;;;;18.33;66.57;102385.50;5049563;28;20037;-75
2022/06/17 05:57:08;;;;;;;9.77;4.93;;;;;;;18.44;65.71;102387.97;5050208;28;20064;-75
2022/06/17 05:59:33;;;;;;;13.13;5.60;;;;;;;18.53;64.38;102386.22;5050831;28;20385;-75
2022/06/17 06:01:58;;;;;;;6.82;5.00;;;;;;;18.62;64.73;102379.88;5050596;28;20048;-75
2022/06/17 06:04:26;;;;;;;12.70;5.32;;;;;;;18.67;63.56;102374.91;5050774;28;20029;-75
2022/06/17 06:06:51;;;;;;;11.27;5.50;;;;;;;18.76;64.15;102373.09;5050529;28;20361;-76
2022/06/17 06:09:17;;;;;;;9.75;5.20;;;;;;;18.88;63.92;102376.41;5050568;28;20021;-76
2022/06/17 06:11:42;;;;;;;11.23;5.10;;;;;;;18.95;63.02;102377.50;5050792;28;20101;-76
2022/06/17 06:14:07;;;;;;;11.48;5.30;;;;;;;19.03;62.98;102372.16;5049361;28;20033;-76
2022/06/17 06:16:34;;;;;;;10.70;4.43;;;;;;;19.13;62.18;102374.75;5050918;28;20136;-75
2022/06/17 06:19:00;;;;;;;7.25;4.85;;;;;;;19.18;62.45;102377.84;5050415;28;20079;-75
2022/06/17 06:21:26;;;;;;;7.47;5.10;;;;;;;19.17;61.76;102381.53;5050052;28;20114;-75
2022/06/17 06:23:54;;;;;;;11.77;5.03;;;;;;;19.18;62.31;102380.53;5050430;28;20029;-75
2022/06/17 06:26:21;;;;;;;13.95;5.28;;;;;;;19.16;61.91;102382.53;5049826;28;20032;-76
2022/06/17 06:28:46;;;;;;;8.65;4.97;;;;;;;19.16;60.95;102373.59;5048259;28;20088;-75
2022/06/17 06:31:20;;;;;;;22.25;5.13;;;;;;;19.16;61.07;102370.91;5050006;28;20044;-76
2022/06/17 06:33:46;;;;;;;12.32;5.43;;;;;;;19.15;61.29;102377.28;5050277;28;20029;-75
2022/06/17 06:36:11;;;;;;;21.88;4.90;;;;;;;19.18;61.40;102376.97;5049957;28;20040;-75
2022/06/17 06:38:36;;;;;;;9.10;4.65;;;;;;;19.26;61.14;102381.56;5048547;28;20060;-75
2022/06/17 06:41:03;;;;;;;9.35;4.93;;;;;;;19.34;61.20;102393.25;5049968;28;20362;-75
2022/06/17 06:43:28;;;;;;;10.77;4.63;;;;;;;19.46;60.90;102393.84;5050210;28;20024;-76
2022/06/17 06:45:54;;;;;;;9.50;4.80;;;;;;;19.65;60.38;102402.72;5050436;28;20036;-76
2022/06/17 06:48:24;;;;;;;10.98;4.85;;;;;;;19.84;59.38;102401.63;5049477;28;20033;-76
2022/06/17 06:50:50;;;;;;;8.77;4.55;;;;;;;20.05;59.31;102395.81;5050095;28;20044;-75
2022/06/17 06:53:15;;;;;;;6.22;4.30;;;;;;;20.25;58.65;102383.69;5049848;28;20049;-76
2022/06/17 06:55:42;;;;;;;8.85;4.55;;;;;;;20.46;58.34;102385.09;5049908;28;20463;-73
2022/06/17 06:58:14;;;;;;;9.98;4.70;;;;;;;20.64;54.80;102368.69;5048193;28;20045;-75
2022/06/17 07:00:45;;;;;;;8.25;4.00;;;;;;;20.85;56.17;102375.50;5049858;28;20109;-72
2022/06/17 07:03:11;;;;;;;5.70;4.07;;;;;;;21.07;55.91;102382.91;5049765;28;20033;-73
2022/06/17 07:05:40;;;;;;;10.52;4.50;;;;;;;21.28;55.39;102378.81;5048174;28;20029;-72
2022/06/17 07:08:06;;;;;;;7.78;4.28;;;;;;;21.50;55.12;102393.50;5049750;28;20037;-73
2022/06/17 07:10:34;;;;;;;9.98;4.35;;;;;;;21.75;53.91;102396.13;5049889;28;20064;-72
2022/06/17 07:13:00;;;;;;;8.80;3.83;;;;;;;21.95;53.27;102402.81;5049699;28;20032;-72
2022/06/17 07:15:26;;;;;;;8.02;4.15;;;;;;;22.18;52.21;102400.16;5049886;28;20033;-73
2022/06/17 07:18:26;;;;;;;9.02;3.85;;;;;;;22.40;50.12;102410.38;5049735;28;20033;-73
2022/06/17 07:20:54;;;;;;;9.73;3.80;;;;;;;22.66;50.17;102412.72;5047412;28;20044;-73
2022/06/17 07:23:24;;;;;;;9.60;3.80;;;;;;;22.86;47.46;102404.94;5049963;28;20072;-73
2022/06/17 07:25:50;;;;;;;12.52;3.90;;;;;;;23.09;47.29;102404.06;5049875;28;20029;-73
2022/06/17 07:28:20;;;;;;;12.48;3.85;;;;;;;23.14;47.78;102402.50;5049523;28;20036;-74
2022/06/17 07:30:47;;;;;;;7.68;3.90;;;;;;;23.22;48.63;102391.56;5050079;28;20048;-74
2022/06/17 07:33:14;;;;;;;8.93;3.70;;;;;;;23.32;45.93;102388.56;5049456;28;20040;-75
2022/06/17 07:35:45;;;;;;;5.88;3.47;;;;;;;23.38;46.34;102392.41;5049627;28;20056;-74
2022/06/17 07:41:06;;;;;;;8.82;3.90;;;;;;;23.54;44.55;102380.50;5049863;28;20090;-75
2022/06/17 07:43:31;;;;;;;4.40;3.25;;;;;;;23.61;45.24;102386.03;5049684;28;20095;-76
2022/06/17 07:45:57;;;;;;;6.70;3.40;;;;;;;23.79;43.84;102385.66;5048664;28;20037;-77
2022/06/17 07:48:23;;;;;;;11.90;3.22;;;;;;;23.91;45.02;102395.03;5051103;28;20037;-75
2022/06/17 07:50:48;;;;;;;6.57;2.70;;;;;;;23.99;43.74;102392.19;5052168;28;20489;-73
2022/06/17 07:53:15;;;;;;;9.68;2.92;;;;;;;24.14;44.15;102394.03;5053872;28;20033;-74
2022/06/17 07:55:42;;;;;;;8.18;2.92;;;;;;;24.17;42.37;102394.50;5053234;28;20033;-73
2022/06/17 07:58:10;;;;;;;6.55;2.80;;;;;;;24.29;41.09;102405.72;5053522;28;20077;-73
2022/06/17 08:00:39;;;;;;;8.50;2.55;;;;;;;24.32;42.26;102404.47;5053635;28;20048;-72
2022/06/17 08:03:05;;;;;;;7.30;2.88;;;;;;;24.37;41.64;102404.75;5052927;28;20040;-72
2022/06/17 08:05:31;;;;;;;6.57;2.92;;;;;;;24.43;41.25;102399.34;5052527;28;20032;-73
2022/06/17 08:07:58;;;;;;;3.45;2.30;;;;;;;24.60;44.04;102405.44;5053093;28;20065;-72
2022/06/17 08:10:28;;;;;;;7.82;2.35;;;;;;;24.77;40.81;102405.16;5053632;28;20044;-75
2022/06/17 08:12:54;;;;;;;6.90;2.80;;;;;;;24.85;40.46;102394.13;5054044;28;20039;-75
2022/06/17 08:15:21;;;;;;;13.25;2.80;;;;;;;24.92;40.42;102403.19;5055912;28;20029;-75
2022/06/17 08:17:48;;;;;;;4.10;2.20;;;;;;;25.10;40.81;102390.97;5052784;28;20096;-75
2022/06/17 08:20:22;;;;;;;6.43;2.70;;;;;;;25.25;39.18;102408.03;5052766;28;20053;-74
2022/06/17 08:22:48;;;;;;;4.65;2.63;;;;;;;25.38;39.71;102403.72;5052964;28;20064;-75
2022/06/17 08:25:14;;;;;;;5.32;2.72;;;;;;;25.36;37.55;102405.81;5053014;28;20029;-75
2022/06/17 08:27:44;;;;;;;7.22;2.50;;;;;;;25.56;38.45;102409.50;5052842;28;20123;-75
2022/06/17 08:30:11;;;;;;;5.95;2.58;;;;;;;25.73;37.61;102409.16;5051627;28;20432;-74
2022/06/17 08:32:45;;;;;;;7.07;2.58;;;;;;;25.78;37.72;102418.44;5052500;28;20040;-75
2022/06/17 08:35:32;;;;;;;4.90;2.72;;;;;;;26.03;37.34;102417.91;5052546;28;20108;-74
2022/06/17 08:38:04;;;;;;;5.35;2.30;;;;;;;26.37;37.45;102410.66;5050840;28;20040;-75
2022/06/17 08:40:53;;;;;;;4.35;2.20;;;;;;;26.70;37.15;102404.44;5052063;28;20043;-74
2022/06/17 08:43:40;;;;;;;6.50;2.58;;;;;;;27.24;37.78;102399.78;5051876;28;20449;-74
2022/06/17 08:46:26;;;;;;;8.65;2.55;;;;;;;27.80;36.11;102396.47;5052323;28;20041;-74
2022/06/17 08:49:22;;;;;;;6.20;2.60;;;;;;;28.43;34.62;102405.00;5052051;28;20036;-74
2022/06/17 08:52:13;;;;;;;5.03;2.20;;;;;;;29.23;33.32;102409.00;5052184;28;20029;-74
2022/06/17 08:54:44;;;;;;;6.72;2.90;;;;;;;29.70;31.07;102403.81;5052283;28;20037;-74
2022/06/17 08:57:25;;;;;;;6.07;2.58;;;;;;;30.36;30.70;102398.50;5051633;28;20151;-74
2022/06/17 09:00:15;;;;;;;6.65;2.40;;;;;;;30.74;29.33;102398.13;5050792;28;20036;-74
2022/06/17 09:02:59;;;;;;;;;;;;;;;30.97;29.12;102406.63;5052308;28;20150;-75
2022/06/17 09:05:37;;;;;;;7.75;2.30;;;;;;;31.49;28.30;102406.72;5050199;28;20276;-75
2022/06/17 09:08:11;;;;;;;5.78;2.60;;;;;;;31.82;28.00;102413.47;5052090;28;20029;-74
2022/06/17 09:10:59;;;;;;;7.13;2.60;;;;;;;32.13;27.89;102397.59;5051923;28;20029;-75
2022/06/17 09:13:30;;;;;;;7.65;2.50;;;;;;;32.28;26.62;102400.59;5051947;28;20529;-75
2022/06/17 09:16:19;;;;;;;7.78;2.65;;;;;;;32.98;25.88;102403.97;5050321;28;20056;-74
2022/06/17 09:18:50;;;;;;;7.20;2.78;;;;;;;33.25;26.06;102408.78;5051328;28;20435;-75
2022/06/17 09:21:23;;;;;;;6.30;2.80;;;;;;;33.34;25.99;102407.25;5051594;28;20041;-75
2022/06/17 09:23:51;;;;;;;10.32;2.55;;;;;;;33.70;26.09;102404.09;5051579;28;20037;-75
2022/06/17 09:26:24;;;;;;;4.78;2.40;;;;;;;33.88;25.66;102408.47;5051410;28;20063;-75
2022/06/17 09:28:57;;;;;;;5.60;2.55;;;;;;;33.78;24.60;102405.59;5051076;28;20144;-74
2022/06/17 09:31:30;;;;;;;8.52;2.40;;;;;;;34.04;25.02;102396.50;5051348;28;20080;-74
2022/06/17 09:34:06;;;;;;;11.68;2.63;;;;;;;34.12;23.62;102394.38;5051329;28;20408;-75
2022/06/17 09:36:44;;;;;;;13.43;4.22;;;;;;;34.32;24.31;102390.97;5051551;28;20044;-75
2022/06/17 09:39:14;;;;;;;14.00;3.20;;;;;;;34.01;24.92;102383.22;5051333;28;20112;-75
2022/06/17 09:41:50;;;;;;;6.45;2.60;;;;;;;34.31;24.26;102384.63;5051329;28;20087;-74
2022/06/17 09:44:23;;;;;;;6.00;2.60;;;;;;;34.34;23.68;102386.88;5051432;28;20025;-74
2022/06/17 09:46:56;;;;;;;8.27;2.72;;;;;;;33.95;22.70;102387.03;5051156;28;20398;-74
2022/06/17 09:49:33;;;;;;;7.50;2.30;;;;;;;34.26;23.36;102379.06;5051510;28;20098;-76
2022/06/17 09:52:33;;;;;;;7.03;2.40;;;;;;;34.30;23.58;102376.63;5051315;28;20032;-75
2022/06/17 09:55:01;;;;;;;;;;;;;;;34.63;25.08;102372.72;5029378;28;20135;-74
2022/06/17 09:57:40;;;;;;;5.00;2.47;;;;;;;34.34;22.98;102373.06;5046334;28;19917;-75
2022/06/17 10:00:10;;;;;;;5.63;2.53;;;;;;;33.92;23.09;102363.53;5051202;28;20056;-74
2022/06/17 10:02:47;;;;;;;6.70;2.38;;;;;;;34.05;24.21;102362.28;5050917;28;20037;-75
2022/06/17 10:05:23;;;;;;;3.65;2.30;;;;;;;34.72;21.51;102364.75;5051281;28;20036;-75
2022/06/17 10:08:02;;;;;;;6.57;2.30;;;;;;;34.24;22.13;102364.66;5051342;28;20041;-75
2022/06/17 10:10:57;;;;;;;6.82;2.17;;;;;;;34.20;22.77;102355.22;5050652;28;20025;-75
2022/06/17 10:13:52;;;;;;;6.45;2.20;;;;;;;34.57;21.94;102348.91;5030786;28;20053;-75
2022/06/17 10:19:44;;;;;;;11.98;2.97;;;;;;;35.08;21.11;102349.25;5050687;28;20032;-73
2022/06/17 10:22:10;;;;;;;8.02;2.40;;;;;;;34.67;22.07;102350.94;5050576;28;20041;-74
2022/06/17 10:24:56;;;;;;;7.15;3.38;;;;;;;33.96;22.53;102341.75;5051169;28;20136;-75
2022/06/17 10:27:53;;;;;;;4.35;2.45;;;;;;;34.58;22.32;102347.81;5051038;28;20040;-74
2022/06/17 10:30:24;;;;;;;7.30;2.63;;;;;;;34.95;22.16;102336.75;5050767;28;20096;-74
2022/06/17 10:32:53;;;;;;;4.45;2.63;;;;;;;35.27;21.55;102338.56;5050620;28;20097;-74
2022/06/17 10:35:33;;;;;;;7.75;2.50;;;;;;;35.34;21.95;102330.03;5050658;28;20429;-75
2022/06/17 10:38:03;;;;;;;9.43;2.42;;;;;;;35.49;21.86;102332.84;5051041;28;20025;-75
2022/06/17 10:40:31;;;;;;;3.88;2.25;;;;;;;35.60;21.94;102336.44;5050360;28;20029;-75
2022/06/17 10:43:02;;;;;;;8.00;2.53;;;;;;;35.71;22.97;102339.25;5050352;28;20086;-75
2022/06/17 10:45:28;;;;;;;4.10;2.65;;;;;;;35.18;21.97;102336.56;5051118;28;20067;-75
2022/06/17 10:48:00;;;;;;;8.05;2.90;;;;;;;34.91;21.83;102323.72;5050011;28;20107;-75
2022/06/17 10:50:28;;;;;;;11.20;2.70;;;;;;;35.02;22.01;102317.13;5050836;28;20052;-75
2022/06/17 10:53:02;;;;;;;5.70;2.90;;;;;;;35.02;20.92;102319.06;5049445;28;20353;-76
2022/06/17 10:55:35;;;;;;;9.48;2.88;;;;;;;35.03;21.92;102318.81;5050896;28;20479;-75
2022/06/17 10:58:16;;;;;;;18.13;2.92;;;;;;;35.05;22.07;102308.28;5050460;28;20559;-75
2022/06/17 11:01:06;;;;;;;14.40;3.30;;;;;;;34.05;22.31;102309.84;5050533;28;20439;-76
2022/06/17 11:03:33;;;;;;;4.95;2.85;;;;;;;34.82;22.53;102298.53;5050702;28;20461;-76
2022/06/17 11:06:22;;;;;;;6.22;2.70;;;;;;;34.87;23.26;102298.53;5050255;28;20032;-76
2022/06/17 11:08:48;;;;;;;5.90;3.00;;;;;;;35.08;22.05;102288.44;5050370;28;20021;-74
2022/06/17 11:14:01;;;;;;;8.48;2.70;;;;;;;35.03;22.18;102284.81;5050591;28;20263;-74
2022/06/17 11:16:28;;;;;;;7.90;3.05;;;;;;;34.74;22.92;102276.88;5050334;28;20040;-74
2022/06/17 11:19:03;;;;;;;5.57;2.78;;;;;;;34.76;21.64;102277.47;5050598;28;20021;-74
2022/06/17 11:21:36;;;;;;;8.85;3.08;;;;;;;34.66;22.76;102271.88;5050337;28;20040;-75
2022/06/17 11:24:04;;;;;;;5.82;3.13;;;;;;;34.80;22.05;102278.63;5054193;28;20071;-75
2022/06/17 11:26:32;;;;;;;8.05;3.22;;;;;;;33.98;23.75;102278.84;5052575;28;20090;-75
2022/06/17 11:29:19;;;;;;;6.13;2.88;;;;;;;34.13;23.47;102291.09;5054226;28;20084;-75
2022/06/17 11:31:49;;;;;;;6.45;2.78;;;;;;;34.40;23.55;102286.38;5054324;28;20029;-76
2022/06/17 11:34:32;;;;;;;5.40;3.28;;;;;;;34.86;22.42;102296.03;5054070;28;20033;-76
2022/06/17 11:37:16;;;;;;;5.88;2.85;;;;;;;35.13;22.04;102290.38;5054650;28;20029;-74
2022/06/17 11:39:42;;;;;;;7.97;2.88;;;;;;;35.08;22.50;102280.13;5054073;28;20033;-75
2022/06/17 11:42:19;;;;;;;7.00;3.38;;;;;;;35.30;21.58;102285.47;5054095;28;20029;-75
2022/06/17 11:45:04;;;;;;;6.38;2.80;;;;;;;35.12;23.30;102286.75;5053929;28;20117;-75
2022/06/17 11:47:32;;;;;;;5.38;2.88;;;;;;;34.90;23.06;102277.81;5054066;28;20103;-75
2022/06/17 11:50:10;;;;;;;6.00;2.88;;;;;;;34.70;21.25;102281.31;5053900;28;20096;-75
2022/06/17 11:52:37;;;;;;;6.25;2.53;;;;;;;34.35;22.13;102274.44;5054132;28;20059;-75